createdAt,value
2022-08-09T00:00:59.200Z,93.34
2022-08-09T00:04:00.336Z,93.64
2022-08-09T00:07:10.764Z,93.33
2022-08-09T00:10:08.180Z,93.61
2022-08-09T00:13:16.772Z,94.29
2022-08-09T00:16:15.322Z,93.54
2022-08-09T00:19:23.384Z,92.90
2022-08-09T00:22:24.826Z,92.18
2022-08-09T00:25:32.942Z,94.80
2022-08-09T00:28:29.863Z,96.97
2022-08-09T00:31:58.290Z,99.26
2022-08-09T00:34:46.339Z,99.87
2022-08-09T00:37:50.800Z,96.94
2022-08-09T00:40:52.592Z,95.95
2022-08-09T00:44:26.383Z,97.36
2022-08-09T00:47:08.577Z,96.03
2022-08-09T00:50:14.184Z,94.65
2022-08-09T00:53:32.531Z,97.64
2022-08-09T00:56:33.999Z,98.53
2022-08-09T00:59:41.485Z,97.40
2022-08-09T01:02:48.068Z,99.49
2022-08-09T01:06:13.913Z,100.00
2022-08-09T01:09:36.770Z,100.00
2022-08-09T01:12:38.985Z,98.21
2022-08-09T01:15:40.971Z,95.35
2022-08-09T01:19:01.980Z,93.72
2022-08-09T01:22:27.600Z,94.00
2022-08-09T01:25:54.770Z,91.49
2022-08-09T01:28:54.107Z,93.58
2022-08-09T01:32:30.156Z,96.23
2022-08-09T01:35:28.338Z,98.85
2022-08-09T01:38:28.826Z,98.30
2022-08-09T01:41:31.651Z,99.45
2022-08-09T01:44:29.517Z,100.00
2022-08-09T01:47:28.394Z,99.93
2022-08-09T01:50:30.046Z,99.04
2022-08-09T01:53:41.501Z,100.00
2022-08-09T01:56:40.050Z,98.74
2022-08-09T01:59:40.893Z,95.47
2022-08-09T02:02:50.062Z,93.44
2022-08-09T02:06:03.314Z,93.80
2022-08-09T02:09:04.267Z,92.46
2022-08-09T02:12:01.906Z,93.26
2022-08-09T02:14:58.978Z,91.60
2022-08-09T02:18:09.910Z,94.27
2022-08-09T02:21:21.944Z,97.12
2022-08-09T02:24:25.925Z,98.00
2022-08-09T02:27:43.267Z,97.30
2022-08-09T02:30:46.427Z,96.02
2022-08-09T02:34:06.613Z,97.11
2022-08-09T02:37:05.200Z,98.65
2022-08-09T02:40:10.518Z,98.56
2022-08-09T02:43:08.654Z,96.34
2022-08-09T02:46:09.121Z,96.15
2022-08-09T02:49:07.742Z,98.02
2022-08-09T02:52:08.079Z,98.28
2022-08-09T02:55:19.952Z,95.33
2022-08-09T02:58:35.967Z,94.11
2022-08-09T03:01:58.666Z,92.17
2022-08-09T03:04:51.102Z,91.74
2022-08-09T03:07:54.835Z,91.96
2022-08-09T03:10:53.160Z,93.76
2022-08-09T03:13:59.354Z,96.60
2022-08-09T03:17:02.395Z,97.13
2022-08-09T03:20:11.155Z,97.35
2022-08-09T03:23:15.095Z,97.45
2022-08-09T03:26:14.381Z,99.74
2022-08-09T03:29:13.502Z,100.00
2022-08-09T03:32:20.118Z,100.00
2022-08-09T03:35:24.696Z,100.00
2022-08-09T03:38:37.354Z,98.74
2022-08-09T03:41:48.691Z,99.10
2022-08-09T03:44:46.333Z,100.00
2022-08-09T03:47:46.310Z,100.00
2022-08-09T03:50:44.215Z,100.00
2022-08-09T03:53:41.116Z,98.85
2022-08-09T03:56:41.193Z,99.95
2022-08-09T03:59:53.821Z,100.00
2022-08-09T04:02:52.619Z,100.00
2022-08-09T04:05:50.858Z,100.00
2022-08-09T04:08:48.258Z,100.00
2022-08-09T04:11:51.082Z,100.00
2022-08-09T04:15:00.450Z,100.00
2022-08-09T04:18:00.507Z,100.00
2022-08-09T04:20:58.047Z,100.00
2022-08-09T04:23:57.735Z,100.00
2022-08-09T04:26:54.954Z,100.00
2022-08-09T04:29:53.043Z,100.00
2022-08-09T04:32:51.833Z,100.00
2022-08-09T04:35:49.203Z,100.00
2022-08-09T04:38:47.359Z,100.00
2022-08-09T04:41:45.531Z,96.55
2022-08-09T04:44:49.063Z,93.26
2022-08-09T04:48:00.209Z,92.86
2022-08-09T04:51:00.486Z,95.53
2022-08-09T04:53:59.350Z,100.00
2022-08-09T04:56:56.467Z,100.00
2022-08-09T04:59:55.463Z,98.48
2022-08-09T05:02:53.412Z,97.44
2022-08-09T05:05:52.739Z,98.04
2022-08-09T05:09:04.630Z,100.00
2022-08-09T05:12:02.362Z,100.00
2022-08-09T05:15:01.055Z,100.00
2022-08-09T05:18:42.520Z,100.00
2022-08-09T05:21:24.282Z,98.11
2022-08-09T05:24:22.130Z,97.20
2022-08-09T05:27:21.116Z,98.40
2022-08-09T05:30:20.087Z,98.55
2022-08-09T05:33:17.011Z,97.27
2022-08-09T05:36:15.565Z,96.48
2022-08-09T05:39:13.124Z,96.27
2022-08-09T05:42:20.831Z,96.19
2022-08-09T05:45:19.098Z,94.92
2022-08-09T05:48:16.135Z,94.05
2022-08-09T05:51:30.119Z,93.49
2022-08-09T05:54:31.110Z,94.32
2022-08-09T05:57:55.987Z,92.95
2022-08-09T06:00:47.510Z,92.92
2022-08-09T06:03:58.448Z,93.90
2022-08-09T06:06:56.281Z,94.31
2022-08-09T06:10:01.386Z,95.36
2022-08-09T06:13:12.441Z,95.15
2022-08-09T06:16:16.462Z,92.67
2022-08-09T06:19:14.863Z,91.48
2022-08-09T06:22:15.377Z,93.12
2022-08-09T06:25:16.365Z,92.45
2022-08-09T06:28:13.716Z,92.41
2022-08-09T06:31:11.183Z,90.68
2022-08-09T06:34:09.482Z,90.39
2022-08-09T06:37:10.006Z,89.39
2022-08-09T06:40:20.285Z,89.42
2022-08-09T06:43:20.929Z,89.02
2022-08-09T06:46:39.203Z,88.48
2022-08-09T06:50:11.809Z,88.85
2022-08-09T06:52:52.927Z,88.75
2022-08-09T06:55:50.428Z,88.70
2022-08-09T07:00:50.760Z,90.95
2022-08-09T07:02:04.771Z,89.76
2022-08-09T07:05:02.573Z,88.11
2022-08-09T07:08:01.771Z,87.46
2022-08-09T07:10:59.225Z,86.77
2022-08-09T07:14:05.585Z,87.56
2022-08-09T07:17:03.649Z,87.36
2022-08-09T07:20:06.099Z,85.91
2022-08-09T07:23:18.641Z,85.39
2022-08-09T07:26:16.489Z,85.06
2022-08-09T07:29:16.147Z,85.59
2022-08-09T07:32:13.129Z,84.09
2022-08-09T07:35:11.999Z,84.02
2022-08-09T07:38:09.162Z,84.26
2022-08-09T07:41:11.458Z,82.87
2022-08-09T07:44:11.775Z,82.96
2022-08-09T07:47:10.568Z,85.34
2022-08-09T07:50:12.538Z,81.59
2022-08-09T07:53:09.464Z,82.44
2022-08-09T07:56:06.811Z,79.92
2022-08-09T07:59:12.346Z,80.60
2022-08-09T08:02:11.213Z,81.78
2022-08-09T08:05:18.945Z,82.34
2022-08-09T08:09:00.213Z,78.95
2022-08-09T08:12:10.047Z,78.79
2022-08-09T08:14:51.729Z,78.50
2022-08-09T08:17:58.332Z,78.67
2022-08-09T08:20:56.354Z,76.65
2022-08-09T08:23:56.067Z,79.64
2022-08-09T08:26:56.817Z,76.69
2022-08-09T08:29:54.330Z,77.76
2022-08-09T08:32:54.071Z,75.45
2022-08-09T08:35:58.277Z,76.89
2022-08-09T08:38:57.989Z,76.09
2022-08-09T08:41:55.178Z,74.71
2022-08-09T08:44:57.645Z,74.73
2022-08-09T08:47:59.061Z,75.30
2022-08-09T08:50:57.417Z,74.86
2022-08-09T08:54:02.985Z,76.21
2022-08-09T08:57:01.906Z,74.82
2022-08-09T08:59:59.453Z,73.83
2022-08-09T09:03:04.473Z,73.05
2022-08-09T09:06:12.861Z,73.57
2022-08-09T09:09:21.091Z,71.40
2022-08-09T09:12:32.033Z,71.73
2022-08-09T09:15:31.530Z,71.52
2022-08-09T09:18:30.498Z,69.64
2022-08-09T09:21:27.282Z,70.58
2022-08-09T09:24:30.605Z,71.90
2022-08-09T09:28:06.412Z,71.28
2022-08-09T09:30:54.523Z,73.24
2022-08-09T09:33:57.007Z,68.25
2022-08-09T09:36:55.002Z,69.62
2022-08-09T09:39:55.448Z,66.77
2022-08-09T09:42:56.508Z,67.96
2022-08-09T09:45:57.126Z,68.38
2022-08-09T09:49:04.853Z,68.61
2022-08-09T09:52:05.465Z,68.06
2022-08-09T09:55:16.435Z,67.82
2022-08-09T09:58:24.656Z,66.15
2022-08-09T10:01:37.108Z,66.29
2022-08-09T10:04:35.359Z,66.23
2022-08-09T10:07:33.931Z,66.41
2022-08-09T10:10:31.938Z,67.27
2022-08-09T10:13:43.192Z,64.92
2022-08-09T10:16:57.284Z,67.66
2022-08-09T10:19:59.259Z,66.77
2022-08-09T10:23:00.991Z,65.98
2022-08-09T10:26:06.266Z,65.97
2022-08-09T10:29:20.985Z,67.20
2022-08-09T10:32:42.846Z,63.84
2022-08-09T10:35:41.515Z,64.93
2022-08-09T10:38:57.257Z,66.60
2022-08-09T10:41:57.670Z,65.60
2022-08-09T10:45:01.280Z,64.44
2022-08-09T10:48:16.872Z,64.30
2022-08-09T10:51:29.698Z,63.66
2022-08-09T10:54:38.935Z,59.08
2022-08-09T10:57:37.700Z,60.85
2022-08-09T11:00:37.611Z,62.56
2022-08-09T11:04:31.294Z,63.50
2022-08-09T11:07:56.599Z,61.73
2022-08-09T11:10:47.026Z,58.04
2022-08-09T11:14:32.123Z,58.17
2022-08-09T11:17:43.333Z,61.88
2022-08-09T11:20:45.463Z,62.28
2022-08-09T11:24:01.479Z,59.36
2022-08-09T11:27:03.702Z,62.48
2022-08-09T11:30:32.737Z,61.47
2022-08-09T11:33:46.226Z,62.12
2022-08-09T11:36:44.327Z,60.29
2022-08-09T11:40:04.461Z,59.69
2022-08-09T11:43:01.572Z,58.63
2022-08-09T11:46:00.035Z,57.24
2022-08-09T11:48:57.999Z,60.18
2022-08-09T11:53:15.214Z,61.34
2022-08-09T11:55:52.163Z,59.09
2022-08-09T11:58:54.655Z,55.09
2022-08-09T12:02:16.612Z,55.48
2022-08-09T12:05:17.466Z,56.68
2022-08-09T12:08:22.146Z,56.45
2022-08-09T12:11:21.339Z,57.67
2022-08-09T12:14:37.282Z,56.41
2022-08-09T12:17:43.549Z,53.32
2022-08-09T12:20:43.713Z,55.74
2022-08-09T12:23:58.054Z,54.67
2022-08-09T12:29:13.478Z,54.68
2022-08-09T12:30:36.853Z,53.77
2022-08-09T12:33:59.488Z,54.31
2022-08-09T12:36:59.021Z,54.89
2022-08-09T12:40:11.579Z,59.24
2022-08-09T12:43:09.607Z,55.16
2022-08-09T12:46:06.700Z,55.13
2022-08-09T12:49:04.811Z,55.18
2022-08-09T12:52:03.622Z,57.04
2022-08-09T12:56:12.653Z,55.51
2022-08-09T12:58:27.476Z,52.91
2022-08-09T13:01:28.331Z,52.38
2022-08-09T13:04:35.833Z,54.88
2022-08-09T13:07:51.591Z,54.15
2022-08-09T13:10:56.884Z,51.86
2022-08-09T13:14:38.629Z,54.79
2022-08-09T13:17:43.989Z,53.91
2022-08-09T13:20:37.678Z,55.58
2022-08-09T13:24:16.271Z,58.11
2022-08-09T13:27:08.618Z,53.50
2022-08-09T13:30:50.557Z,54.28
2022-08-09T13:33:35.934Z,52.66
2022-08-09T13:36:44.177Z,50.73
2022-08-09T13:41:56.658Z,49.72
2022-08-09T13:42:58.709Z,50.52
2022-08-09T13:46:44.774Z,51.06
2022-08-09T13:49:18.459Z,54.00
2022-08-09T13:52:15.387Z,53.60
2022-08-09T13:55:17.764Z,56.23
2022-08-09T13:58:18.733Z,53.32
2022-08-09T14:02:01.105Z,53.25
2022-08-09T14:04:32.662Z,51.70
2022-08-09T14:07:30.375Z,50.43
2022-08-09T14:10:49.157Z,50.95
2022-08-09T14:14:16.105Z,51.46
2022-08-09T14:17:06.386Z,53.56
2022-08-09T14:20:09.133Z,48.24
2022-08-09T14:23:06.815Z,49.76
2022-08-09T14:26:05.966Z,50.83
2022-08-09T14:29:08.302Z,50.17
2022-08-09T14:32:30.846Z,49.39
2022-08-09T14:35:28.516Z,48.58
2022-08-09T14:38:45.651Z,49.31
2022-08-09T14:41:50.763Z,49.35
2022-08-09T14:45:00.170Z,51.81
2022-08-09T14:47:59.626Z,48.43
2022-08-09T14:50:58.017Z,44.94
2022-08-09T14:53:55.741Z,45.70
2022-08-09T14:56:57.518Z,46.07
2022-08-09T14:59:56.717Z,47.42
2022-08-09T15:02:53.736Z,49.45
2022-08-09T15:05:58.157Z,48.59
2022-08-09T15:08:58.496Z,48.05
2022-08-09T15:11:57.312Z,48.39
2022-08-09T15:14:54.971Z,46.64
2022-08-09T15:17:53.220Z,48.25
2022-08-09T15:22:00.988Z,48.96
2022-08-09T15:24:12.171Z,47.69
2022-08-09T15:27:10.837Z,47.02
2022-08-09T15:30:57.084Z,49.93
2022-08-09T15:33:30.124Z,50.71
2022-08-09T15:36:48.128Z,50.05
2022-08-09T15:39:54.675Z,50.87
2022-08-09T15:42:53.128Z,49.20
2022-08-09T15:46:07.873Z,47.71
2022-08-09T15:49:07.954Z,49.61
2022-08-09T15:52:20.554Z,50.05
2022-08-09T15:55:23.947Z,49.82
2022-08-09T15:58:26.854Z,49.20
2022-08-09T16:01:24.666Z,48.26
2022-08-09T16:04:23.247Z,48.89
2022-08-09T16:07:21.148Z,48.41
2022-08-09T16:10:56.102Z,49.21
2022-08-09T16:14:03.450Z,48.81
2022-08-09T16:16:52.679Z,48.87
2022-08-09T16:20:03.859Z,50.43
2022-08-09T16:23:03.345Z,47.48
2022-08-09T16:26:02.808Z,46.96
2022-08-09T16:29:00.159Z,49.00
2022-08-09T16:32:17.935Z,48.00
2022-08-09T16:35:19.390Z,49.20
2022-08-09T16:38:34.690Z,49.97
2022-08-09T16:41:39.409Z,48.81
2022-08-09T16:44:49.206Z,49.58
2022-08-09T16:48:39.725Z,48.63
2022-08-09T16:51:08.241Z,48.99
2022-08-09T16:54:26.312Z,48.22
2022-08-09T16:58:08.135Z,48.16
2022-08-09T17:00:46.573Z,48.75
2022-08-09T17:03:45.021Z,48.37
2022-08-09T17:08:40.188Z,48.47
2022-08-09T17:10:01.962Z,48.92
2022-08-09T17:13:02.762Z,49.62
2022-08-09T17:16:04.386Z,49.29
2022-08-09T17:19:02.458Z,48.55
2022-08-09T17:22:02.887Z,49.24
2022-08-09T17:25:03.828Z,49.75
2022-08-09T17:28:05.489Z,51.11
2022-08-09T17:31:02.638Z,50.58
2022-08-09T17:33:59.581Z,51.49
2022-08-09T17:36:57.037Z,51.43
2022-08-09T17:40:00.231Z,50.38
2022-08-09T17:42:59.329Z,52.11
2022-08-09T17:46:03.738Z,52.95
2022-08-09T17:49:03.070Z,53.21
2022-08-09T17:52:02.359Z,53.96
2022-08-09T17:55:01.245Z,54.18
2022-08-09T17:58:03.221Z,55.24
2022-08-09T18:01:01.742Z,55.45
2022-08-09T18:03:59.665Z,56.03
2022-08-09T18:07:04.727Z,56.89
2022-08-09T18:10:05.691Z,56.70
2022-08-09T18:13:42.911Z,57.01
2022-08-09T18:16:29.247Z,58.46
2022-08-09T18:20:57.914Z,59.29
2022-08-09T18:22:44.210Z,58.82
2022-08-09T18:25:53.401Z,59.81
2022-08-09T18:30:39.171Z,60.36
2022-08-09T18:32:11.715Z,60.98
2022-08-09T18:35:09.956Z,61.04
2022-08-09T18:38:06.807Z,62.00
2022-08-09T18:41:08.940Z,62.16
2022-08-09T18:44:12.984Z,61.88
2022-08-09T18:47:15.272Z,62.92
2022-08-09T18:50:14.262Z,62.62
2022-08-09T18:53:13.452Z,63.49
2022-08-09T18:56:10.744Z,64.00
2022-08-09T18:59:07.962Z,64.77
2022-08-09T19:02:04.848Z,65.68
2022-08-09T19:05:19.721Z,65.05
2022-08-09T19:08:22.185Z,66.59
2022-08-09T19:11:35.126Z,67.83
2022-08-09T19:14:35.018Z,66.97
2022-08-09T19:17:54.387Z,68.00
2022-08-09T19:20:52.374Z,69.58
2022-08-09T19:24:37.050Z,70.41
2022-08-09T19:27:13.180Z,70.87
2022-08-09T19:30:25.246Z,71.72
2022-08-09T19:33:25.926Z,71.31
2022-08-09T19:36:23.972Z,70.95
2022-08-09T19:39:43.182Z,71.60
2022-08-09T19:42:47.305Z,72.17
2022-08-09T19:45:47.252Z,72.43
2022-08-09T19:49:00.385Z,73.71
2022-08-09T19:52:00.141Z,73.77
2022-08-09T19:54:59.179Z,74.38
2022-08-09T19:57:56.203Z,75.64
2022-08-09T20:00:53.907Z,75.54
2022-08-09T20:04:10.524Z,75.14
2022-08-09T20:07:20.977Z,76.71
2022-08-09T20:10:22.123Z,76.87
2022-08-09T20:13:25.227Z,76.94
2022-08-09T20:16:34.446Z,77.24
2022-08-09T20:19:47.707Z,78.09
2022-08-09T20:22:49.996Z,76.94
2022-08-09T20:25:51.486Z,77.97
2022-08-09T20:28:50.096Z,77.68
2022-08-09T20:32:28.686Z,78.35
2022-08-09T20:35:07.530Z,77.14
2022-08-09T20:38:22.234Z,77.33
2022-08-09T20:41:35.133Z,77.14
2022-08-09T20:44:36.515Z,76.38
2022-08-09T20:47:48.093Z,76.22
2022-08-09T20:50:47.602Z,76.40
2022-08-09T20:53:46.018Z,77.85
2022-08-09T20:56:49.654Z,78.60
2022-08-09T21:00:30.648Z,78.58
2022-08-09T21:03:08.238Z,79.01
2022-08-09T21:06:06.520Z,80.04
2022-08-09T21:09:06.579Z,79.96
2022-08-09T21:15:14.110Z,80.88
2022-08-09T21:18:24.668Z,80.93
2022-08-09T21:21:23.134Z,80.80
2022-08-09T21:25:00.334Z,81.50
2022-08-09T21:27:57.927Z,80.82
2022-08-09T21:30:54.917Z,81.41
2022-08-09T21:33:56.752Z,82.12
2022-08-09T21:36:55.874Z,82.65
2022-08-09T21:39:53.834Z,82.83
2022-08-09T21:42:54.346Z,81.63
2022-08-09T21:45:52.118Z,81.67
2022-08-09T21:48:53.378Z,83.27
2022-08-09T21:51:50.121Z,84.94
2022-08-09T21:54:59.599Z,84.77
2022-08-09T21:58:01.942Z,83.67
2022-08-09T22:00:59.521Z,83.45
2022-08-09T22:03:59.139Z,84.46
2022-08-09T22:07:02.004Z,85.40
2022-08-09T22:10:02.982Z,87.38
2022-08-09T22:13:00.274Z,88.18
2022-08-09T22:16:07.562Z,87.56
2022-08-09T22:19:23.841Z,87.00
2022-08-09T22:22:22.139Z,88.31
2022-08-09T22:26:07.383Z,89.02
2022-08-09T22:28:37.008Z,88.51
2022-08-09T22:31:44.121Z,89.03
2022-08-09T22:35:02.348Z,89.69
2022-08-09T22:38:06.999Z,91.62
2022-08-09T22:41:05.055Z,91.96
2022-08-09T22:44:04.472Z,90.82
2022-08-09T22:48:13.137Z,89.12
2022-08-09T22:50:19.586Z,88.30
2022-08-09T22:53:17.441Z,88.07
2022-08-09T22:56:33.209Z,88.89
2022-08-09T22:59:57.165Z,89.14
2022-08-09T23:02:48.095Z,88.14
2022-08-09T23:05:45.769Z,88.41
2022-08-09T23:08:45.712Z,88.87
2022-08-09T23:11:42.951Z,89.48
2022-08-09T23:14:42.195Z,89.80
2022-08-09T23:17:40.213Z,90.02
2022-08-09T23:20:36.877Z,91.29
2022-08-09T23:23:34.690Z,92.58
2022-08-09T23:26:32.155Z,93.93
2022-08-09T23:29:31.066Z,92.09
2022-08-09T23:32:28.320Z,90.23
2022-08-09T23:35:25.231Z,91.59
2022-08-09T23:38:22.056Z,92.42
2022-08-09T23:41:28.818Z,91.74
2022-08-09T23:44:26.195Z,92.21
2022-08-09T23:47:23.344Z,93.35
2022-08-09T23:50:20.420Z,94.56
2022-08-09T23:53:17.301Z,93.55
2022-08-09T23:56:15.499Z,93.65
2022-08-09T23:59:14.974Z,91.50
